Time;durP1;ratioP1;P1;durP2;ratioP2;P2;SDS_P1;SDS_P2;PMS_P1;PMS_P2;Temp;Humidity;BMP_temperature;BMP_pressure;BME280_temperature;BME280_humidity;BME280_pressure;Samples;Min_cycle;Max_cycle;Signal;HPM_P1;HPM_P2
2021/05/09 00:02:06;;;;;;;;;11.50;10.00;;;;;15.57;44.57;98786.25;4768413;29;103757;-81
2021/05/09 00:04:33;;;;;;;;;17.00;11.25;;;;;15.55;44.77;98774.72;4786596;29;104783;-81
2021/05/09 00:06:59;;;;;;;;;13.00;12.25;;;;;15.53;45.04;98767.84;4782917;29;103902;-80
2021/05/09 00:09:26;;;;;;;;;15.00;12.75;;;;;15.55;44.86;98768.44;4770101;29;102945;-80
2021/05/09 00:11:53;;;;;;;;;10.25;10.25;;;;;15.54;44.61;98764.03;4748882;29;103702;-80
2021/05/09 00:14:20;;;;;;;;;15.75;13.50;;;;;15.53;44.95;98765.97;4779674;29;102032;-81
2021/05/09 00:16:46;;;;;;;;;14.00;13.25;;;;;15.53;44.77;98765.13;4779569;29;103760;-80
2021/05/09 00:19:17;;;;;;;;;16.75;12.50;;;;;15.51;44.92;98765.34;4735402;29;104103;-80
2021/05/09 00:21:53;;;;;;;;;15.00;14.50;;;;;15.51;44.77;98765.34;4786776;29;102324;-80
2021/05/09 00:24:24;;;;;;;;;12.50;12.50;;;;;15.50;44.49;98754.63;4786688;29;107471;-81
2021/05/09 00:26:58;;;;;;;;;13.25;11.50;;;;;15.50;44.61;98751.91;4782691;29;102630;-80
2021/05/09 00:29:30;;;;;;;;;15.00;12.50;;;;;15.50;45.00;98762.81;4791485;29;107932;-80
2021/05/09 00:32:03;;;;;;;;;13.75;13.00;;;;;15.49;44.47;98751.06;4785468;29;102602;-80
2021/05/09 00:34:38;;;;;;;;;10.50;9.50;;;;;15.48;44.37;98745.88;4791342;29;102190;-81
2021/05/09 00:37:10;;;;;;;;;14.25;11.00;;;;;15.48;45.05;98756.78;4792154;29;102669;-81
2021/05/09 00:39:45;;;;;;;;;13.50;12.00;;;;;15.48;45.01;98748.59;4787791;29;103187;-81
2021/05/09 00:42:18;;;;;;;;;15.00;13.00;;;;;15.47;44.70;98750.47;4786819;29;102490;-81
2021/05/09 00:44:53;;;;;;;;;14.50;12.50;;;;;15.46;44.62;98746.09;4787737;29;102438;-81
2021/05/09 00:47:29;;;;;;;;;15.00;13.00;;;;;15.46;44.88;98750.69;4790188;29;102637;-81
2021/05/09 00:50:01;;;;;;;;;13.00;11.75;;;;;15.46;44.68;98756.16;4780498;29;107708;-81
2021/05/09 00:52:39;;;;;;;;;13.75;11.75;;;;;15.46;44.53;98742.53;4770263;29;103695;-81
2021/05/09 00:55:15;;;;;;;;;15.75;14.25;;;;;15.46;44.36;98753.44;4787663;29;102349;-81
2021/05/09 00:57:46;;;;;;;;;14.00;12.75;;;;;15.44;44.76;98761.84;4785339;29;103144;-80
2021/05/09 01:00:22;;;;;;;;;15.00;12.50;;;;;15.44;44.59;98756.41;4782359;29;103068;-81
2021/05/09 01:02:55;;;;;;;;;17.00;13.50;;;;;15.44;44.61;98747.41;4776125;29;104347;-81
2021/05/09 01:05:29;;;;;;;;;15.75;15.00;;;;;15.42;44.78;98753.06;4756247;29;102915;-81
2021/05/09 01:08:05;;;;;;;;;13.75;13.00;;;;;15.42;44.85;98752.22;4750348;29;102618;-81
2021/05/09 01:10:39;;;;;;;;;15.25;11.75;;;;;15.42;44.54;98753.06;4764897;29;108393;-80
2021/05/09 01:13:12;;;;;;;;;15.00;13.75;;;;;15.41;44.59;98750.56;4770807;29;102656;-80
2021/05/09 01:15:45;;;;;;;;;15.00;12.25;;;;;15.40;45.12;98757.09;4788543;29;102675;-80
2021/05/09 01:18:18;;;;;;;;;12.75;11.50;;;;;15.36;44.57;98734.06;4754893;29;106535;-80
2021/05/09 01:20:51;;;;;;;;;16.00;14.25;;;;;15.41;44.70;98748.66;4786443;29;104206;-81
2021/05/09 01:23:24;;;;;;;;;13.00;13.00;;;;;15.38;44.76;98740.97;4785463;29;102173;-81
2021/05/09 01:25:59;;;;;;;;;16.25;15.50;;;;;15.39;44.69;98748.06;4779551;29;102665;-81
2021/05/09 01:28:31;;;;;;;;;14.50;12.50;;;;;15.38;44.99;98745.56;4786381;29;102768;-81
2021/05/09 01:31:02;;;;;;;;;14.50;12.75;;;;;15.37;44.60;98747.47;4787090;29;108017;-81
2021/05/09 01:33:33;;;;;;;;;14.25;14.25;;;;;15.37;44.38;98746.63;4786966;29;102605;-80
2021/05/09 01:36:06;;;;;;;;;16.25;14.50;;;;;15.36;44.47;98742.22;4787904;29;102919;-80
2021/05/09 01:38:41;;;;;;;;;18.75;16.25;;;;;15.36;44.53;98744.94;4793649;29;102638;-80
2021/05/09 01:41:13;;;;;;;;;14.00;13.25;;;;;15.36;44.40;98750.41;4788167;29;103487;-80
2021/05/09 01:43:47;;;;;;;;;15.00;13.00;;;;;15.34;44.73;98737.03;4779186;29;102954;-81
2021/05/09 01:46:21;;;;;;;;;15.00;14.00;;;;;15.34;44.59;98744.38;4787329;29;102684;-81
2021/05/09 01:48:57;;;;;;;;;18.00;15.00;;;;;15.30;44.30;98735.81;4794183;29;102363;-81
2021/05/09 01:51:28;;;;;;;;;13.50;11.75;;;;;15.35;44.44;98732.41;4790797;29;103101;-81
2021/05/09 01:54:04;;;;;;;;;16.00;13.00;;;;;15.34;44.56;98744.38;4784503;29;103214;-81
2021/05/09 01:56:36;;;;;;;;;13.00;13.00;;;;;15.32;44.58;98728.22;4794945;29;103681;-81
2021/05/09 01:59:11;;;;;;;;;12.25;11.50;;;;;15.32;44.27;98722.78;4791948;29;102216;-81
2021/05/09 02:01:42;;;;;;;;;13.75;12.50;;;;;15.31;44.43;98723.84;4784541;29;103205;-81
2021/05/09 02:04:17;;;;;;;;;17.00;15.00;;;;;15.32;44.72;98738.28;4790410;29;104184;-80
2021/05/09 02:06:50;;;;;;;;;16.00;13.25;;;;;15.32;44.66;98739.13;4791425;29;102484;-81
2021/05/09 02:09:26;;;;;;;;;17.00;14.25;;;;;15.32;44.61;98727.41;4787273;29;102264;-81
2021/05/09 02:11:58;;;;;;;;;13.25;12.75;;;;;15.30;44.25;98727.66;4780519;29;103072;-81
2021/05/09 02:14:30;;;;;;;;;15.25;13.50;;;;;15.31;44.75;98723.03;4793275;29;102664;-81
2021/05/09 02:17:05;;;;;;;;;13.25;12.00;;;;;15.30;44.78;98724.09;4794826;29;104536;-81
2021/05/09 02:19:37;;;;;;;;;14.50;13.50;;;;;15.28;44.73;98718.84;4780611;29;103955;-81
2021/05/09 02:22:13;;;;;;;;;16.75;14.50;;;;;15.30;44.60;98724.09;4791206;29;107840;-81
2021/05/09 02:24:46;;;;;;;;;14.75;12.50;;;;;15.29;44.26;98723.25;4793530;29;104212;-81
2021/05/09 02:27:20;;;;;;;;;16.00;12.25;;;;;15.29;44.33;98722.41;4787548;29;102249;-81
2021/05/09 02:29:55;;;;;;;;;12.00;11.25;;;;;15.28;44.37;98715.28;4791146;29;104050;-80
2021/05/09 02:32:27;;;;;;;;;14.00;14.00;;;;;15.29;44.83;98716.97;4793226;29;104019;-81
2021/05/09 02:35:02;;;;;;;;;14.75;13.00;;;;;15.28;44.52;98715.28;4792887;29;102585;-81
2021/05/09 02:37:38;;;;;;;;;13.50;10.75;;;;;15.28;44.61;98724.31;4788823;29;102768;-81
2021/05/09 02:40:13;;;;;;;;;12.50;12.00;;;;;15.27;44.15;98716.34;4787750;29;102907;-81
2021/05/09 02:42:50;;;;;;;;;14.00;13.50;;;;;15.27;44.37;98713.63;4788562;29;103380;-81
2021/05/09 02:45:23;;;;;;;;;11.50;11.00;;;;;15.27;44.85;98716.34;4787708;29;103346;-81
2021/05/09 02:48:00;;;;;;;;;13.75;10.75;;;;;15.26;44.12;98709.25;4788763;29;102765;-80
2021/05/09 02:50:36;;;;;;;;;14.50;11.25;;;;;15.25;44.15;98715.75;4798190;29;102254;-81
2021/05/09 02:53:08;;;;;;;;;11.50;11.50;;;;;15.27;44.46;98719.06;4784866;29;107798;-81
2021/05/09 02:55:43;;;;;;;;;9.50;9.50;;;;;15.25;44.57;98710.31;4790130;29;102617;-81
2021/05/09 02:58:13;;;;;;;;;17.75;13.25;;;;;15.25;44.67;98715.75;4793850;29;102713;-81
2021/05/09 03:00:40;;;;;;;;;14.00;12.25;;;;;15.26;44.33;98728.34;4794371;29;102715;-81
2021/05/09 03:03:07;;;;;;;;;10.50;10.00;;;;;15.25;44.47;98719.31;4787896;29;103884;-80
2021/05/09 03:05:34;;;;;;;;;11.50;11.25;;;;;15.27;44.58;98724.53;4791637;29;102551;-81
2021/05/09 03:08:01;;;;;;;;;12.50;9.00;;;;;15.25;44.79;98721.22;4792858;29;102134;-81
2021/05/09 03:10:28;;;;;;;;;11.75;10.50;;;;;15.25;44.19;98727.50;4789058;29;102821;-80
2021/05/09 03:12:55;;;;;;;;;12.00;11.25;;;;;15.25;44.56;98722.06;4789667;29;104356;-81
2021/05/09 03:15:21;;;;;;;;;11.75;10.25;;;;;15.23;44.30;98713.25;4795242;29;102659;-81
2021/05/09 03:17:48;;;;;;;;;10.25;10.25;;;;;15.24;44.54;98714.94;4790008;29;104618;-81
2021/05/09 03:20:15;;;;;;;;;11.50;9.50;;;;;15.13;44.28;98702.91;4789685;29;102514;-81
2021/05/09 03:22:42;;;;;;;;;10.25;10.25;;;;;15.24;44.28;98719.53;4793252;29;103997;-81
2021/05/09 03:25:09;;;;;;;;;10.00;9.75;;;;;15.25;44.45;98719.31;4788878;29;102536;-81
2021/05/09 03:27:35;;;;;;;;;9.50;8.25;;;;;15.22;44.67;98711.59;4795005;29;102504;-81
2021/05/09 03:30:03;;;;;;;;;12.75;12.25;;;;;15.23;44.50;98712.41;4792277;29;102440;-81
2021/05/09 03:32:29;;;;;;;;;9.25;9.00;;;;;15.22;44.22;98716.22;4787387;29;104070;-81
2021/05/09 03:34:57;;;;;;;;;10.75;10.00;;;;;15.23;44.68;98718.69;4786316;29;102719;-81
2021/05/09 03:37:24;;;;;;;;;10.50;10.50;;;;;15.24;44.62;98725.81;4793160;29;102740;-81
2021/05/09 03:39:51;;;;;;;;;11.50;10.00;;;;;15.26;44.34;98725.59;4790822;29;102505;-81
2021/05/09 03:42:17;;;;;;;;;9.00;8.00;;;;;15.24;44.10;98716.81;4785053;29;104091;-81
2021/05/09 03:44:44;;;;;;;;;13.00;10.00;;;;;15.25;44.47;98721.22;4790239;29;102678;-81
2021/05/09 03:47:11;;;;;;;;;13.50;9.75;;;;;15.23;44.20;98718.69;4786484;29;102649;-81
2021/05/09 03:49:38;;;;;;;;;9.50;8.50;;;;;15.25;44.05;98723.94;4790823;29;102239;-81
2021/05/09 03:52:04;;;;;;;;;11.00;9.00;;;;;15.23;44.00;98734.22;4788801;29;109387;-81
2021/05/09 03:54:31;;;;;;;;;9.75;8.75;;;;;15.24;44.33;98736.72;4786130;29;102881;-81
2021/05/09 03:56:58;;;;;;;;;11.00;10.75;;;;;15.23;44.07;98740.50;4788290;29;102591;-81
2021/05/09 03:59:24;;;;;;;;;11.00;9.25;;;;;15.25;44.12;98740.28;4794997;29;102357;-81
2021/05/09 04:01:51;;;;;;;;;9.75;9.00;;;;;15.25;44.48;98732.09;4791974;29;104534;-81
2021/05/09 04:04:18;;;;;;;;;10.00;9.25;;;;;15.24;44.27;98728.56;4786820;29;102933;-81
2021/05/09 04:06:44;;;;;;;;;9.25;9.25;;;;;15.25;44.48;98732.94;4789792;29;102641;-81
2021/05/09 04:09:11;;;;;;;;;14.25;9.00;;;;;15.25;43.99;98738.41;4786163;29;102579;-81
2021/05/09 04:11:38;;;;;;;;;10.75;10.50;;;;;15.26;44.04;98733.78;4789711;29;104119;-80
2021/05/09 04:14:05;;;;;;;;;11.50;8.00;;;;;15.26;44.42;98737.34;4793476;29;102368;-81
2021/05/09 04:16:32;;;;;;;;;9.25;8.75;;;;;15.28;44.32;98739.81;4789904;29;103514;-81
2021/05/09 04:18:58;;;;;;;;;10.00;8.25;;;;;15.27;44.39;98732.69;4785477;29;105358;-81
2021/05/09 04:21:25;;;;;;;;;9.75;8.25;;;;;15.26;44.48;98739.22;4786778;29;104063;-81
2021/05/09 04:23:52;;;;;;;;;10.00;8.75;;;;;15.27;44.28;98740.88;4789403;29;102296;-81
2021/05/09 04:26:18;;;;;;;;;9.00;8.00;;;;;15.27;44.32;98746.31;4770315;29;102676;-81
2021/05/09 04:28:45;;;;;;;;;7.25;7.25;;;;;15.26;44.05;98750.13;4786922;29;103889;-81
2021/05/09 04:31:11;;;;;;;;;8.75;8.75;;;;;15.20;44.34;98730.06;4789533;29;104714;-81
2021/05/09 04:33:38;;;;;;;;;9.75;8.00;;;;;15.28;44.24;98748.00;4786365;29;104505;-81
2021/05/09 04:36:09;;;;;;;;;7.00;7.00;;;;;15.28;44.28;98748.00;4787244;29;102678;-81
2021/05/09 04:38:36;;;;;;;;;6.00;5.75;;;;;15.27;43.76;98747.16;4797092;29;102478;-81
2021/05/09 04:41:02;;;;;;;;;9.75;8.25;;;;;15.27;44.12;98740.88;4785081;29;104245;-81
2021/05/09 04:43:29;;;;;;;;;8.50;7.00;;;;;15.27;44.32;98749.03;4788989;29;102778;-81
2021/05/09 04:45:56;;;;;;;;;8.75;7.50;;;;;15.27;44.21;98747.16;4792113;29;102825;-81
2021/05/09 04:48:23;;;;;;;;;8.00;7.75;;;;;15.27;43.99;98743.59;4784338;29;103010;-81
2021/05/09 04:50:50;;;;;;;;;10.25;8.00;;;;;15.28;44.22;98734.38;4789001;29;104025;-80
2021/05/09 04:53:36;;;;;;;;;9.00;8.50;;;;;15.28;43.95;98732.47;4790368;29;102302;-81
2021/05/09 04:56:07;;;;;;;;;13.50;9.75;;;;;15.27;44.13;98729.97;4786949;29;102273;-81
2021/05/09 04:58:40;;;;;;;;;8.50;7.25;;;;;15.29;44.38;98736.03;4789132;29;102766;-81
2021/05/09 05:01:08;;;;;;;;;11.50;10.25;;;;;15.29;44.27;98741.50;4786334;29;108746;-81
2021/05/09 05:03:36;;;;;;;;;9.00;8.00;;;;;15.29;43.78;98736.03;4777365;29;103442;-81
2021/05/09 05:06:03;;;;;;;;;8.00;7.25;;;;;15.29;43.80;98733.31;4763275;29;103135;-81
2021/05/09 05:08:31;;;;;;;;;12.00;9.50;;;;;15.29;43.86;98733.31;4773210;29;102622;-81
2021/05/09 05:10:59;;;;;;;;;9.00;7.00;;;;;15.30;43.96;98732.25;4762713;29;104149;-81
2021/05/09 05:13:26;;;;;;;;;8.25;7.25;;;;;15.29;43.77;98738.75;4770519;29;102792;-81
2021/05/09 05:15:55;;;;;;;;;7.25;7.25;;;;;15.22;43.95;98724.41;4765489;29;102459;-81
2021/05/09 05:18:23;;;;;;;;;9.25;7.50;;;;;15.28;44.11;98727.03;4772513;29;102351;-81
2021/05/09 05:20:55;;;;;;;;;9.75;6.00;;;;;15.30;44.10;98732.25;4765324;29;104063;-81
2021/05/09 05:23:22;;;;;;;;;7.25;7.25;;;;;15.29;44.07;98739.59;4764916;29;102639;-81
2021/05/09 05:25:49;;;;;;;;;7.75;7.00;;;;;15.30;44.05;98737.72;4773496;29;102525;-81
2021/05/09 05:28:15;;;;;;;;;5.75;4.75;;;;;15.29;43.74;98736.03;4762279;29;102766;-81
2021/05/09 05:30:44;;;;;;;;;7.50;7.50;;;;;15.31;44.00;98739.38;4767230;29;104070;-81
2021/05/09 05:33:32;;;;;;;;;7.00;7.00;;;;;15.31;43.96;98742.09;4771589;29;102581;-81
2021/05/09 05:35:59;;;;;;;;;7.75;6.00;;;;;15.32;44.10;98738.28;4764913;29;102316;-81
2021/05/09 05:38:26;;;;;;;;;7.50;7.00;;;;;15.32;43.70;98738.28;4768137;29;102330;-81
2021/05/09 05:40:56;;;;;;;;;6.00;5.25;;;;;15.33;44.03;98745.41;4767048;29;104061;-81
2021/05/09 05:43:24;;;;;;;;;6.00;6.00;;;;;15.33;43.81;98739.97;4766183;29;102417;-81
2021/05/09 05:45:51;;;;;;;;;8.00;5.00;;;;;15.33;43.91;98739.97;4763705;29;102676;-81
2021/05/09 05:48:19;;;;;;;;;6.25;5.50;;;;;15.32;43.97;98741.03;4770474;29;102721;-81
2021/05/09 05:50:46;;;;;;;;;8.00;7.50;;;;;15.35;43.59;98744.16;4766212;29;104101;-81
2021/05/09 05:53:19;;;;;;;;;8.25;5.50;;;;;15.34;43.54;98738.91;4766429;29;102264;-81
2021/05/09 05:55:46;;;;;;;;;5.00;5.00;;;;;15.36;43.60;98744.94;4757474;29;102597;-81
2021/05/09 05:58:13;;;;;;;;;6.50;6.00;;;;;15.37;43.58;98741.16;4760189;29;102627;-81
2021/05/09 06:00:41;;;;;;;;;7.25;7.00;;;;;15.36;43.80;98725.88;4769966;29;104116;-81
2021/05/09 06:03:07;;;;;;;;;8.50;6.75;;;;;15.35;43.95;98727.81;4761686;29;103881;-81
2021/05/09 06:05:34;;;;;;;;;7.00;6.00;;;;;15.35;43.56;98726.97;4782072;29;102093;-81
2021/05/09 06:08:01;;;;;;;;;5.00;5.00;;;;;15.36;43.64;98732.16;4787639;29;104015;-81
2021/05/09 06:10:27;;;;;;;;;7.00;6.50;;;;;15.38;43.48;98734.66;4782823;29;104286;-81
2021/05/09 06:12:55;;;;;;;;;6.75;6.00;;;;;15.38;43.74;98726.50;4789439;29;102951;-81
2021/05/09 06:15:21;;;;;;;;;4.50;4.50;;;;;15.39;43.25;98728.16;4788651;29;102488;-81
2021/05/09 06:17:48;;;;;;;;;9.00;5.75;;;;;15.39;43.85;98725.44;4790340;29;102596;-81
2021/05/09 06:20:15;;;;;;;;;6.00;6.00;;;;;15.39;43.50;98717.28;4790303;29;104146;-81
2021/05/09 06:22:42;;;;;;;;;5.00;5.00;;;;;15.39;43.97;98725.44;4785643;29;104121;-81
2021/05/09 06:25:09;;;;;;;;;7.75;6.75;;;;;15.40;43.95;98724.38;4780462;29;102799;-81
2021/05/09 06:27:36;;;;;;;;;6.00;6.00;;;;;15.40;43.88;98724.38;4793653;29;102264;-81
2021/05/09 06:30:04;;;;;;;;;6.25;5.00;;;;;15.39;43.71;98723.56;4791731;29;104163;-81
2021/05/09 06:32:30;;;;;;;;;5.75;5.00;;;;;15.41;43.68;98720.56;4768942;29;102582;-81
2021/05/09 06:34:59;;;;;;;;;5.75;5.75;;;;;15.40;43.58;98725.19;4787901;29;102432;-81
2021/05/09 06:37:26;;;;;;;;;5.50;5.50;;;;;15.43;43.68;98721.19;4788223;29;102845;-81
2021/05/09 06:39:53;;;;;;;;;6.50;6.00;;;;;15.42;43.46;98727.69;4785398;29;104205;-81
2021/05/09 06:42:20;;;;;;;;;6.75;5.75;;;;;15.42;43.99;98723.09;4784564;29;102622;-81
2021/05/09 06:44:53;;;;;;;;;6.00;6.00;;;;;15.43;43.84;98715.75;4794046;29;102671;-81
2021/05/09 06:47:19;;;;;;;;;6.50;5.00;;;;;15.44;43.70;98725.59;4785679;29;103734;-81
2021/05/09 06:49:46;;;;;;;;;6.75;6.00;;;;;15.44;43.82;98718.25;4784533;29;104069;-81
2021/05/09 06:52:13;;;;;;;;;8.00;7.00;;;;;15.44;43.84;98722.88;4790167;29;102211;-81
2021/05/09 06:54:39;;;;;;;;;6.00;5.00;;;;;15.43;43.73;98716.59;4793366;29;103033;-81
2021/05/09 06:57:06;;;;;;;;;4.00;3.00;;;;;15.44;43.85;98712.81;4790178;29;102513;-81
2021/05/09 06:59:33;;;;;;;;;9.25;6.00;;;;;15.45;43.88;98717.16;4790367;29;105829;-81
2021/05/09 07:02:00;;;;;;;;;5.00;5.00;;;;;15.43;43.58;98719.31;4788105;29;103793;-81
2021/05/09 07:04:26;;;;;;;;;6.00;6.00;;;;;15.46;43.68;98712.56;4781880;29;102678;-81
2021/05/09 07:06:53;;;;;;;;;6.50;4.00;;;;;15.46;43.75;98712.56;4785535;29;102577;-81
2021/05/09 07:09:20;;;;;;;;;7.00;6.00;;;;;15.46;43.46;98718.00;4778579;29;103617;-80
2021/05/09 07:11:46;;;;;;;;;5.25;5.25;;;;;15.45;43.81;98709.00;4781808;29;104069;-81
2021/05/09 07:14:13;;;;;;;;;3.75;3.00;;;;;15.47;43.80;98708.78;4785093;29;102455;-81
2021/05/09 07:16:40;;;;;;;;;5.25;5.00;;;;;15.48;43.50;98705.81;4791488;29;102572;-81
2021/05/09 07:19:08;;;;;;;;;6.50;4.25;;;;;15.49;43.65;98709.38;4785802;29;109072;-81
2021/05/09 07:21:50;;;;;;;;;5.00;5.00;;;;;15.48;43.62;98705.81;4787661;29;102275;-81
2021/05/09 07:24:17;;;;;;;;;6.50;5.50;;;;;15.49;43.47;98701.22;4736305;29;103965;-81
2021/05/09 07:26:44;;;;;;;;;6.00;4.75;;;;;15.50;43.60;98697.41;4780852;29;102879;-81
2021/05/09 07:29:10;;;;;;;;;4.00;4.00;;;;;15.51;43.76;98707.28;4788333;29;105394;-81
2021/05/09 07:31:40;;;;;;;;;4.25;3.25;;;;;15.50;43.49;98694.69;4794658;29;102853;-81
2021/05/09 07:34:09;;;;;;;;;3.75;3.75;;;;;15.49;43.59;98696.56;4783709;29;105205;-81
2021/05/09 07:36:38;;;;;;;;;4.00;4.00;;;;;15.51;43.63;98693.66;4786960;29;103800;-81
2021/05/09 07:39:06;;;;;;;;;6.50;6.50;;;;;15.53;43.34;98703.28;4789947;29;104521;-81
2021/05/09 07:41:32;;;;;;;;;5.00;5.00;;;;;15.52;43.67;98706.22;4790390;29;102534;-81
2021/05/09 07:43:59;;;;;;;;;3.50;2.50;;;;;15.52;43.50;98698.06;4798853;29;104789;-80
2021/05/09 07:46:26;;;;;;;;;5.25;5.00;;;;;15.52;43.45;98698.06;4813884;29;103016;-81
2021/05/09 07:48:53;;;;;;;;;4.75;4.75;;;;;15.54;43.67;98699.47;4812866;29;103248;-81
2021/05/09 07:51:20;;;;;;;;;6.00;4.00;;;;;15.55;43.80;98689.41;4820298;29;101937;-81
2021/05/09 07:53:47;;;;;;;;;5.25;5.25;;;;;15.55;43.58;98686.69;4795727;29;101493;-81
2021/05/09 07:56:13;;;;;;;;;4.75;4.00;;;;;15.56;43.43;98685.63;4815605;29;101416;-81
2021/05/09 07:58:40;;;;;;;;;4.75;3.00;;;;;15.54;43.52;98683.13;4817853;29;104883;-81
2021/05/09 08:01:07;;;;;;;;;5.00;4.75;;;;;15.56;43.60;98685.63;4810934;29;101778;-81
2021/05/09 08:03:35;;;;;;;;;5.75;5.75;;;;;15.58;43.41;98683.47;4820588;29;101446;-81
2021/05/09 08:06:02;;;;;;;;;4.00;3.25;;;;;15.57;44.01;98681.84;4809722;29;101960;-81
2021/05/09 08:08:31;;;;;;;;;4.00;4.00;;;;;15.57;43.38;98676.38;4815874;29;103072;-81
2021/05/09 08:10:58;;;;;;;;;5.00;4.00;;;;;15.59;43.39;98685.16;4821009;29;101679;-81
2021/05/09 08:13:25;;;;;;;;;5.75;5.00;;;;;15.60;43.59;98681.38;4815141;29;102370;-80
2021/05/09 08:15:51;;;;;;;;;4.50;4.00;;;;;15.60;43.47;98676.75;4811386;29;102129;-80
2021/05/09 08:18:25;;;;;;;;;6.50;3.50;;;;;15.61;43.31;98680.31;4805135;29;103702;-80
2021/05/09 08:20:56;;;;;;;;;4.00;4.00;;;;;15.61;43.54;98680.31;4800964;29;102088;-81
2021/05/09 08:23:23;;;;;;;;;4.25;4.25;;;;;15.63;43.39;98679.00;4804793;29;103038;-81
2021/05/09 08:25:53;;;;;;;;;4.75;4.50;;;;;15.63;43.26;98664.53;4810961;29;102606;-81
2021/05/09 08:28:19;;;;;;;;;5.75;5.00;;;;;15.63;43.48;98678.16;4810032;29;103094;-81
2021/05/09 08:30:46;;;;;;;;;5.75;5.00;;;;;15.64;43.35;98682.56;4808359;29;103246;-81
2021/05/09 08:33:13;;;;;;;;;4.00;4.00;;;;;15.66;43.24;98669.56;4811744;29;101724;-81
2021/05/09 08:35:39;;;;;;;;;5.00;4.25;;;;;15.66;43.37;98674.16;4812571;29;101806;-81
2021/05/09 08:38:06;;;;;;;;;4.25;3.25;;;;;15.66;43.33;98675.00;4805981;29;103339;-78
2021/05/09 08:40:37;;;;;;;;;3.25;3.25;;;;;15.67;43.46;98671.19;4804832;29;101388;-81
2021/05/09 08:43:04;;;;;;;;;6.00;4.75;;;;;15.68;43.46;98669.28;4814536;29;101968;-81
2021/05/09 08:45:31;;;;;;;;;3.75;3.75;;;;;15.67;43.28;98665.75;4809136;29;102555;-81
2021/05/09 08:47:57;;;;;;;;;5.50;5.00;;;;;15.68;43.03;98667.41;4798385;29;103469;-81
2021/05/09 08:50:26;;;;;;;;;3.50;3.50;;;;;15.69;43.17;98673.69;4799001;29;102178;-81
2021/05/09 08:52:53;;;;;;;;;3.00;3.00;;;;;15.61;43.40;98658.50;4803282;29;101957;-80
2021/05/09 08:55:26;;;;;;;;;4.25;3.00;;;;;15.70;43.20;98673.47;4804327;29;106073;-81
2021/05/09 08:57:56;;;;;;;;;3.75;3.75;;;;;15.71;43.32;98685.22;4803254;29;103100;-80
2021/05/09 09:00:24;;;;;;;;;5.00;3.75;;;;;15.70;43.05;98670.75;4804620;29;102621;-80
2021/05/09 09:02:55;;;;;;;;;4.00;3.00;;;;;15.72;43.46;98676.78;4805895;29;101754;-80
2021/05/09 09:05:41;;;;;;;;;4.25;4.25;;;;;15.72;43.44;98676.78;4810088;29;101818;-80
2021/05/09 09:08:09;;;;;;;;;4.00;4.00;;;;;15.71;43.43;98672.41;4813200;29;103072;-80
2021/05/09 09:10:49;;;;;;;;;5.00;4.00;;;;;15.73;43.52;98663.97;4808501;29;103086;-80
2021/05/09 09:13:27;;;;;;;;;3.00;3.00;;;;;15.73;43.58;98673.00;4806502;29;101943;-80
2021/05/09 09:16:07;;;;;;;;;3.50;3.00;;;;;15.74;43.66;98671.94;4812436;29;103892;-80
2021/05/09 09:18:41;;;;;;;;;3.50;3.50;;;;;15.75;43.37;98662.72;4808278;29;103259;-80
2021/05/09 09:21:27;;;;;;;;;4.25;3.00;;;;;15.74;43.22;98663.75;4807568;29;101414;-80
2021/05/09 09:24:09;;;;;;;;;3.75;3.50;;;;;15.75;43.66;98676.34;4751551;29;101937;-80
2021/05/09 09:26:43;;;;;;;;;3.50;3.25;;;;;15.76;43.40;98658.88;4807351;29;101936;-80
2021/05/09 09:29:27;;;;;;;;;1.00;1.00;;;;;15.76;43.54;98664.34;4795590;29;112290;-80
2021/05/09 09:31:55;;;;;;;;;4.75;3.25;;;;;15.77;43.54;98663.28;4740394;29;102377;-80
2021/05/09 09:34:23;;;;;;;;;5.50;4.25;;;;;15.77;43.67;98660.56;4802680;29;102386;-80
2021/05/09 09:37:01;;;;;;;;;3.50;3.50;;;;;15.77;43.58;98660.56;4798977;29;102507;-80
2021/05/09 09:39:49;;;;;;;;;3.50;2.50;;;;;15.79;43.69;98661.19;4785038;29;103307;-81
2021/05/09 09:42:36;;;;;;;;;3.50;3.00;;;;;15.79;43.82;98658.44;4797506;29;102469;-81
2021/05/09 09:45:16;;;;;;;;;4.00;4.00;;;;;15.80;43.19;98653.81;4797093;29;102093;-80
2021/05/09 09:47:46;;;;;;;;;4.00;3.00;;;;;15.80;43.75;98659.28;4793169;29;103666;-80
2021/05/09 09:50:33;;;;;;;;;3.00;2.00;;;;;15.81;44.04;98650.84;4792181;29;109161;-79
2021/05/09 09:53:00;;;;;;;;;3.75;3.75;;;;;15.83;43.56;98648.72;4726715;29;102669;-79
2021/05/09 09:55:26;;;;;;;;;3.00;2.00;;;;;15.84;43.71;98647.69;4796279;29;105592;-80
2021/05/09 09:58:03;;;;;;;;;2.50;2.50;;;;;15.82;43.82;98636.16;4800695;29;102419;-78
2021/05/09 10:00:30;;;;;;;;;2.75;1.75;;;;;15.82;43.72;98640.78;4789555;29;105317;-79
2021/05/09 10:02:56;;;;;;;;;2.50;2.50;;;;;15.81;43.88;98629.03;4787648;29;102589;-80
2021/05/09 10:05:23;;;;;;;;;5.00;4.00;;;;;15.82;43.67;98635.31;4790863;29;102655;-80
2021/05/09 10:07:50;;;;;;;;;3.25;2.50;;;;;15.83;43.76;98632.38;4789089;29;102188;-80
2021/05/09 10:10:17;;;;;;;;;3.75;3.00;;;;;15.75;43.86;98612.81;4793850;29;104246;-78
2021/05/09 10:12:46;;;;;;;;;5.75;3.25;;;;;15.82;43.53;98625.25;4788735;29;102531;-78
2021/05/09 10:15:13;;;;;;;;;3.00;3.00;;;;;15.86;43.73;98621.00;4789389;29;102410;-78
2021/05/09 10:17:46;;;;;;;;;2.75;2.75;;;;;15.88;43.61;98613.41;4797128;29;103341;-78
2021/05/09 10:20:13;;;;;;;;;3.00;3.00;;;;;15.91;43.43;98620.28;4775143;29;108643;-78
2021/05/09 10:22:54;;;;;;;;;3.00;3.00;;;;;15.88;43.63;98621.59;4772003;29;102359;-78
2021/05/09 10:25:58;;;;;;;;;5.00;3.50;;;;;15.88;43.95;98623.50;4775841;29;105810;-78
2021/05/09 10:28:25;;;;;;;;;4.00;3.00;;;;;15.89;44.29;98625.16;4736839;29;102255;-78
2021/05/09 10:30:53;;;;;;;;;3.75;3.00;;;;;15.90;43.72;98614.00;4790356;29;103980;-78
2021/05/09 10:33:39;;;;;;;;;3.25;3.25;;;;;15.91;43.80;98615.66;4784934;29;102811;-78
2021/05/09 10:36:06;;;;;;;;;4.00;4.00;;;;;15.90;43.69;98613.16;4794211;29;102449;-78
2021/05/09 10:39:10;;;;;;;;;4.00;3.00;;;;;15.88;43.47;98609.84;4795116;29;102244;-78
2021/05/09 10:41:58;;;;;;;;;3.50;3.00;;;;;15.89;43.64;98623.28;4738379;29;108840;-78
2021/05/09 10:44:45;;;;;;;;;3.50;3.25;;;;;15.91;43.31;98604.75;4739341;29;103531;-78
2021/05/09 10:47:31;;;;;;;;;4.00;3.25;;;;;15.92;43.93;98617.34;4787107;29;102619;-77
2021/05/09 10:50:20;;;;;;;;;2.25;2.25;;;;;15.92;43.83;98611.88;4743468;29;102756;-78
2021/05/09 10:52:51;;;;;;;;;3.00;2.75;;;;;15.92;43.52;98611.88;4779982;29;108989;-78
2021/05/09 10:55:36;;;;;;;;;3.00;3.00;;;;;15.94;43.80;98607.00;4792967;29;102991;-78
2021/05/09 10:58:08;;;;;;;;;3.00;3.00;;;;;15.93;43.97;98610.00;4790572;29;102295;-78
2021/05/09 11:00:58;;;;;;;;;3.50;2.25;;;;;15.92;43.95;98608.31;4795378;29;103273;-78
2021/05/09 11:03:34;;;;;;;;;3.00;3.00;;;;;15.91;43.99;98602.03;4727108;29;108863;-78
2021/05/09 11:06:17;;;;;;;;;5.75;4.50;;;;;15.92;43.87;98603.69;4748481;29;1187962;-78
2021/05/09 11:08:48;;;;;;;;;5.25;4.00;;;;;15.97;43.88;98606.56;4784905;29;103023;-78
2021/05/09 11:11:18;;;;;;;;;5.25;3.50;;;;;15.98;43.78;98599.22;4780904;29;102836;-78
2021/05/09 11:14:10;;;;;;;;;3.00;3.00;;;;;15.99;44.03;98603.56;4788289;29;109021;-78
2021/05/09 11:16:43;;;;;;;;;2.75;2.75;;;;;15.98;44.03;98602.78;4726205;29;111748;-78
2021/05/09 11:19:14;;;;;;;;;2.75;2.00;;;;;15.97;43.47;98601.09;4789552;29;103687;-80
2021/05/09 11:21:49;;;;;;;;;3.00;2.25;;;;;15.99;43.94;98603.56;4795887;29;102176;-79
2021/05/09 11:24:20;;;;;;;;;2.50;2.00;;;;;15.98;43.86;98596.47;4786697;29;108950;-78
2021/05/09 11:26:48;;;;;;;;;3.00;3.00;;;;;15.98;43.68;98602.78;4782273;29;102227;-78
2021/05/09 11:29:17;;;;;;;;;2.00;2.00;;;;;15.99;44.14;98604.41;4783815;29;102235;-78
2021/05/09 11:31:44;;;;;;;;;3.25;3.25;;;;;16.00;43.74;98592.44;4744493;29;103180;-78
2021/05/09 11:34:11;;;;;;;;;4.00;4.00;;;;;16.00;43.90;98586.97;4785625;29;104116;-78
2021/05/09 11:36:39;;;;;;;;;4.00;3.00;;;;;16.02;43.96;98590.31;4793280;29;102430;-77